createdAt,value
2023-05-03T00:00:27.609Z,7.70
2023-05-03T00:02:57.419Z,7.70
2023-05-03T00:05:28.007Z,7.60
2023-05-03T00:07:56.922Z,7.60
2023-05-03T00:10:25.405Z,7.60
2023-05-03T00:12:53.488Z,7.50
2023-05-03T00:15:21.567Z,7.50
2023-05-03T00:17:51.517Z,7.50
2023-05-03T00:20:20.676Z,7.50
2023-05-03T00:22:48.912Z,7.50
2023-05-03T00:25:17.201Z,7.40
2023-05-03T00:27:45.439Z,7.30
2023-05-03T00:30:14.740Z,7.20
2023-05-03T00:32:42.837Z,7.20
2023-05-03T00:35:12.373Z,7.10
2023-05-03T00:37:40.533Z,7.00
2023-05-03T00:40:10.603Z,6.90
2023-05-03T00:42:38.696Z,6.80
2023-05-03T00:45:08.358Z,6.70
2023-05-03T00:47:38.328Z,6.70
2023-05-03T00:50:11.696Z,6.60
2023-05-03T00:52:41.924Z,6.50
2023-05-03T00:55:12.210Z,6.50
2023-05-03T00:57:40.838Z,6.50
2023-05-03T01:00:13.468Z,6.50
2023-05-03T01:02:41.890Z,6.50
2023-05-03T01:05:10.937Z,6.40
2023-05-03T01:07:57.466Z,6.40
2023-05-03T01:10:39.331Z,6.30
2023-05-03T01:13:20.467Z,6.30
2023-05-03T01:16:00.841Z,6.30
2023-05-03T01:18:34.583Z,6.20
2023-05-03T01:21:06.457Z,6.10
2023-05-03T01:23:44.765Z,6.10
2023-05-03T01:26:25.881Z,6.00
2023-05-03T01:28:54.565Z,5.90
2023-05-03T01:31:33.805Z,5.90
2023-05-03T01:34:21.057Z,5.90
2023-05-03T01:36:53.663Z,5.90
2023-05-03T01:39:27.804Z,5.90
2023-05-03T01:41:59.642Z,5.90
2023-05-03T01:44:30.249Z,5.90
2023-05-03T01:46:59.069Z,5.80
2023-05-03T01:49:27.218Z,5.90
2023-05-03T01:51:55.327Z,5.90
2023-05-03T01:54:23.436Z,5.90
2023-05-03T01:56:51.564Z,5.90
2023-05-03T01:59:21.029Z,5.90
2023-05-03T02:01:49.139Z,5.90
2023-05-03T02:04:17.306Z,5.90
2023-05-03T02:06:45.539Z,5.90
2023-05-03T02:09:14.638Z,5.90
2023-05-03T02:11:43.886Z,6.00
2023-05-03T02:14:12.436Z,6.00
2023-05-03T02:16:41.956Z,6.00
2023-05-03T02:19:11.044Z,6.00
2023-05-03T02:21:39.455Z,6.00
2023-05-03T02:24:08.122Z,6.00
2023-05-03T02:26:36.215Z,6.00
2023-05-03T02:29:04.353Z,6.00
2023-05-03T02:31:32.566Z,5.90
2023-05-03T02:34:03.313Z,6.00
2023-05-03T02:36:31.997Z,6.00
2023-05-03T02:39:00.117Z,6.00
2023-05-03T02:41:28.659Z,6.00
2023-05-03T02:43:56.781Z,6.00
2023-05-03T02:46:24.986Z,6.00
2023-05-03T02:48:53.111Z,6.00
2023-05-03T02:51:22.580Z,6.20
2023-05-03T02:53:50.756Z,6.20
2023-05-03T02:56:18.836Z,6.20
2023-05-03T02:58:47.123Z,6.30
2023-05-03T03:01:15.228Z,6.30
2023-05-03T03:03:43.554Z,6.30
2023-05-03T03:06:11.979Z,6.20
2023-05-03T03:08:41.487Z,6.20
2023-05-03T03:11:09.758Z,6.20
2023-05-03T03:13:39.742Z,6.20
2023-05-03T03:16:08.409Z,6.30
2023-05-03T03:18:37.010Z,6.20
2023-05-03T03:21:05.661Z,6.20
2023-05-03T03:23:33.787Z,6.20
2023-05-03T03:26:03.427Z,6.20
2023-05-03T03:28:31.550Z,6.20
2023-05-03T03:30:59.876Z,6.20
2023-05-03T03:33:27.999Z,6.20
2023-05-03T03:35:56.092Z,6.10
2023-05-03T03:38:24.159Z,6.10
2023-05-03T03:40:52.704Z,6.10
2023-05-03T03:43:22.240Z,6.20
2023-05-03T03:45:50.590Z,6.20
2023-05-03T03:48:18.745Z,6.10
2023-05-03T03:50:47.192Z,6.10
2023-05-03T03:53:15.376Z,6.10
2023-05-03T03:55:43.599Z,6.10
2023-05-03T03:58:11.734Z,6.20
2023-05-03T04:00:41.534Z,6.20
2023-05-03T04:03:09.731Z,6.20
2023-05-03T04:05:37.893Z,6.20
2023-05-03T04:08:06.612Z,6.30
2023-05-03T04:10:34.737Z,6.30
2023-05-03T04:13:03.114Z,6.40
2023-05-03T04:15:31.228Z,6.40
2023-05-03T04:18:00.751Z,6.40
2023-05-03T04:20:29.367Z,6.40
2023-05-03T04:22:57.500Z,6.40
2023-05-03T04:25:26.611Z,6.40
2023-05-03T04:27:55.601Z,6.50
2023-05-03T04:30:24.728Z,6.40
2023-05-03T04:32:54.258Z,6.30
2023-05-03T04:35:23.939Z,6.40
2023-05-03T04:37:52.016Z,6.40
2023-05-03T04:40:20.318Z,6.40
2023-05-03T04:42:48.425Z,6.40
2023-05-03T04:45:16.570Z,6.50
2023-05-03T04:47:44.993Z,6.60
2023-05-03T04:50:13.165Z,6.80
2023-05-03T04:52:42.648Z,6.90
2023-05-03T04:55:11.304Z,7.10
2023-05-03T04:57:39.406Z,7.30
2023-05-03T05:00:11.863Z,7.90
2023-05-03T05:02:40.355Z,8.50
2023-05-03T05:05:10.589Z,9.00
2023-05-03T05:07:38.699Z,9.50
2023-05-03T05:10:10.791Z,10.00
2023-05-03T05:12:39.171Z,10.20
2023-05-03T05:15:09.032Z,10.10
2023-05-03T05:17:37.381Z,9.90
2023-05-03T05:20:07.400Z,9.70
2023-05-03T05:22:35.796Z,9.50
2023-05-03T05:25:04.123Z,9.50
2023-05-03T05:27:33.715Z,9.20
2023-05-03T05:30:02.230Z,9.00
2023-05-03T05:32:30.811Z,9.10
2023-05-03T05:34:58.871Z,9.10
2023-05-03T05:37:27.423Z,8.90
2023-05-03T05:39:56.244Z,8.90
2023-05-03T05:42:24.254Z,9.00
2023-05-03T05:44:53.668Z,9.10
2023-05-03T05:47:22.027Z,9.30
2023-05-03T05:49:50.155Z,9.40
2023-05-03T05:52:18.222Z,9.40
2023-05-03T05:54:46.234Z,9.40
2023-05-03T05:57:14.416Z,9.50
2023-05-03T05:59:42.525Z,9.50
2023-05-03T06:02:17.686Z,9.40
2023-05-03T06:04:47.298Z,9.60
2023-05-03T06:07:16.241Z,9.40
2023-05-03T06:09:44.364Z,9.30
2023-05-03T06:12:12.425Z,9.40
2023-05-03T06:14:46.300Z,9.40
2023-05-03T06:17:22.698Z,9.50
2023-05-03T06:19:50.892Z,9.60
2023-05-03T06:22:19.075Z,9.60
2023-05-03T06:24:47.247Z,9.60
2023-05-03T06:27:15.321Z,9.60
2023-05-03T06:29:44.332Z,9.40
2023-05-03T06:32:12.452Z,9.50
2023-05-03T06:34:41.827Z,9.60
2023-05-03T06:37:09.952Z,9.60
2023-05-03T06:39:38.034Z,9.60
2023-05-03T06:42:06.321Z,9.60
2023-05-03T06:44:34.563Z,9.60
2023-05-03T06:47:02.783Z,9.60
2023-05-03T06:49:30.947Z,9.50
2023-05-03T06:52:00.400Z,9.70
2023-05-03T06:54:28.516Z,9.70
2023-05-03T06:56:56.648Z,9.80
2023-05-03T06:59:24.737Z,9.80
2023-05-03T07:01:52.863Z,9.80
2023-05-03T07:04:21.269Z,9.80
2023-05-03T07:09:41.379Z,9.70
2023-05-03T07:12:10.791Z,9.70
2023-05-03T07:14:40.592Z,9.70
2023-05-03T07:17:08.699Z,9.80
2023-05-03T07:19:37.314Z,9.90
2023-05-03T07:22:05.675Z,9.90
2023-05-03T07:24:35.173Z,9.70
2023-05-03T07:27:03.282Z,9.80
2023-05-03T07:29:31.328Z,9.80
2023-05-03T07:31:59.743Z,9.80
2023-05-03T07:34:28.017Z,9.80
2023-05-03T07:36:56.276Z,9.80
2023-05-03T07:39:24.280Z,10.00
2023-05-03T07:41:53.708Z,10.00
2023-05-03T07:44:22.331Z,10.00
2023-05-03T07:46:50.342Z,10.00
2023-05-03T07:49:18.422Z,10.00
2023-05-03T07:51:46.490Z,10.00
2023-05-03T07:54:14.536Z,10.10
2023-05-03T07:56:42.562Z,10.00
2023-05-03T07:59:11.968Z,10.10
2023-05-03T08:01:40.374Z,10.10
2023-05-03T08:04:08.613Z,10.20
2023-05-03T08:06:38.493Z,10.10
2023-05-03T08:09:06.759Z,10.10
2023-05-03T08:11:34.868Z,10.30
2023-05-03T08:14:03.007Z,10.30
2023-05-03T08:16:32.460Z,10.30
2023-05-03T08:19:00.698Z,10.50
2023-05-03T08:21:28.751Z,10.70
2023-05-03T08:23:56.789Z,10.70
2023-05-03T08:26:28.442Z,10.80
2023-05-03T08:28:56.603Z,10.80
2023-05-03T08:31:24.809Z,10.90
2023-05-03T08:33:54.250Z,10.90
2023-05-03T08:36:22.275Z,10.90
2023-05-03T08:38:50.726Z,10.80
2023-05-03T08:41:29.120Z,10.80
2023-05-03T08:44:01.181Z,10.90
2023-05-03T08:46:30.559Z,11.00
2023-05-03T08:49:01.684Z,11.00
2023-05-03T08:51:29.788Z,10.90
2023-05-03T08:53:57.997Z,10.80
2023-05-03T08:56:31.088Z,10.90
2023-05-03T08:59:07.201Z,11.20
2023-05-03T09:01:37.712Z,11.50
2023-05-03T09:04:08.049Z,11.50
2023-05-03T09:06:37.311Z,11.60
2023-05-03T09:09:08.651Z,11.60
2023-05-03T09:11:39.692Z,11.60
2023-05-03T09:14:13.175Z,11.70
2023-05-03T09:16:44.432Z,11.80
2023-05-03T09:19:15.850Z,11.90
2023-05-03T09:21:47.440Z,11.80
2023-05-03T09:24:18.488Z,11.90
2023-05-03T09:26:48.019Z,11.70
2023-05-03T09:29:30.116Z,11.70
2023-05-03T09:32:04.674Z,11.90
2023-05-03T09:34:35.539Z,11.90
2023-05-03T09:37:03.598Z,11.90
2023-05-03T09:39:32.279Z,11.90
2023-05-03T09:42:01.155Z,12.00
2023-05-03T09:44:43.583Z,11.90
2023-05-03T09:47:12.906Z,12.00
2023-05-03T09:49:42.475Z,12.10
2023-05-03T09:52:11.053Z,12.10
2023-05-03T09:54:40.755Z,12.10
2023-05-03T09:57:10.101Z,12.20
2023-05-03T09:59:39.835Z,12.00
2023-05-03T10:02:09.180Z,12.00
2023-05-03T10:04:44.576Z,12.10
2023-05-03T10:07:18.244Z,12.10
2023-05-03T10:09:48.770Z,12.20
2023-05-03T10:12:17.720Z,12.10
2023-05-03T10:14:49.372Z,12.10
2023-05-03T10:17:39.441Z,12.10
2023-05-03T10:20:29.294Z,12.20
2023-05-03T10:23:14.769Z,12.10
2023-05-03T10:26:17.155Z,12.30
2023-05-03T10:28:46.330Z,12.30
2023-05-03T10:31:45.862Z,12.20
2023-05-03T10:34:25.274Z,12.20
2023-05-03T10:36:54.306Z,12.20
2023-05-03T10:39:23.004Z,12.20
2023-05-03T10:42:05.082Z,12.20
2023-05-03T10:44:41.106Z,12.40
2023-05-03T10:47:14.589Z,12.30
2023-05-03T10:49:42.878Z,12.30
2023-05-03T10:52:49.868Z,12.20
2023-05-03T10:55:20.793Z,12.40
2023-05-03T10:57:51.167Z,12.40
2023-05-03T11:00:28.724Z,12.40
2023-05-03T11:03:14.301Z,12.40
2023-05-03T11:05:42.862Z,12.60
2023-05-03T11:08:17.612Z,12.70
2023-05-03T11:10:46.625Z,12.60
2023-05-03T11:13:16.731Z,12.70
2023-05-03T11:15:46.887Z,12.80
2023-05-03T11:18:16.384Z,12.80
2023-05-03T11:20:45.586Z,12.70
2023-05-03T11:23:13.804Z,12.80
2023-05-03T11:25:41.853Z,12.70
2023-05-03T11:28:09.933Z,12.70
2023-05-03T11:30:39.382Z,12.80
2023-05-03T11:33:07.948Z,12.70
2023-05-03T11:35:36.694Z,12.80
2023-05-03T11:38:04.747Z,12.80
2023-05-03T11:40:32.945Z,12.90
2023-05-03T11:43:01.708Z,12.90
2023-05-03T11:45:33.941Z,12.90
2023-05-03T11:48:03.591Z,12.80
2023-05-03T11:50:47.511Z,12.90
2023-05-03T11:53:16.922Z,12.80
2023-05-03T11:55:47.908Z,12.50
2023-05-03T11:58:17.550Z,12.40
2023-05-03T12:00:47.704Z,12.50
2023-05-03T12:03:24.033Z,12.70
2023-05-03T12:05:54.623Z,12.80
2023-05-03T12:08:30.275Z,12.90
2023-05-03T12:11:01.691Z,12.80
2023-05-03T12:13:35.946Z,12.90
2023-05-03T12:16:13.809Z,13.00
2023-05-03T12:18:56.260Z,12.80
2023-05-03T12:23:57.874Z,13.00
2023-05-03T12:26:27.254Z,13.00
2023-05-03T12:28:56.893Z,13.00
2023-05-03T12:31:28.915Z,12.90
2023-05-03T12:36:32.331Z,13.20
2023-05-03T12:39:02.029Z,13.20
2023-05-03T12:42:00.934Z,13.20
2023-05-03T12:44:22.431Z,13.20
2023-05-03T12:46:53.250Z,13.10
2023-05-03T12:49:23.666Z,13.10
2023-05-03T12:52:11.121Z,13.20
2023-05-03T12:54:42.268Z,13.30
2023-05-03T12:57:15.361Z,13.30
2023-05-03T12:59:52.269Z,13.30
2023-05-03T13:04:59.575Z,13.40
2023-05-03T13:07:32.288Z,13.20
2023-05-03T13:12:36.273Z,13.20
2023-05-03T13:15:05.539Z,13.30
2023-05-03T13:17:34.173Z,13.40
2023-05-03T13:20:07.017Z,13.40
2023-05-03T13:22:35.184Z,13.50
2023-05-03T13:25:04.385Z,13.60
2023-05-03T13:27:32.820Z,13.60
2023-05-03T13:30:04.571Z,13.60
2023-05-03T13:32:33.180Z,13.60
2023-05-03T13:35:02.746Z,13.40
2023-05-03T13:37:30.987Z,13.60
2023-05-03T13:39:59.262Z,13.60
2023-05-03T13:42:27.285Z,13.70
2023-05-03T13:44:55.314Z,13.70
2023-05-03T13:47:23.385Z,13.70
2023-05-03T13:49:51.429Z,13.70
2023-05-03T13:52:20.795Z,13.80
2023-05-03T13:54:48.849Z,13.90
2023-05-03T13:57:16.948Z,13.90
2023-05-03T13:59:45.434Z,13.90
2023-05-03T14:02:13.447Z,13.80
2023-05-03T14:04:41.487Z,13.80
2023-05-03T14:07:09.567Z,14.00
2023-05-03T14:09:39.566Z,13.80
2023-05-03T14:12:09.075Z,13.80
2023-05-03T14:14:37.320Z,13.90
2023-05-03T14:17:06.196Z,13.90
2023-05-03T14:19:36.680Z,13.90
2023-05-03T14:22:04.831Z,14.00
2023-05-03T14:24:32.884Z,14.00
2023-05-03T14:27:02.970Z,14.00
2023-05-03T14:29:31.330Z,14.20
2023-05-03T14:31:59.367Z,14.20
2023-05-03T14:34:28.955Z,14.20
2023-05-03T14:36:57.029Z,14.20
2023-05-03T14:39:25.497Z,14.20
2023-05-03T14:41:55.145Z,14.20
2023-05-03T14:44:25.822Z,14.10
2023-05-03T14:46:54.007Z,14.20
2023-05-03T14:49:22.259Z,14.10
2023-05-03T14:51:50.287Z,14.10
2023-05-03T14:54:19.592Z,14.00
2023-05-03T14:56:47.889Z,13.90
2023-05-03T14:59:15.991Z,13.90
2023-05-03T15:01:45.438Z,13.90
2023-05-03T15:04:13.586Z,13.90
2023-05-03T15:06:42.808Z,13.90
2023-05-03T15:09:12.798Z,13.90
2023-05-03T15:11:41.315Z,14.10
2023-05-03T15:14:10.050Z,14.00
2023-05-03T15:16:38.240Z,14.00
2023-05-03T15:19:08.375Z,14.00
2023-05-03T15:21:47.359Z,13.90
2023-05-03T15:24:16.127Z,13.90
2023-05-03T15:26:44.230Z,13.90
2023-05-03T15:29:12.437Z,13.80
2023-05-03T15:31:40.610Z,13.80
2023-05-03T15:34:11.161Z,13.80
2023-05-03T15:36:40.338Z,13.70
2023-05-03T15:39:09.170Z,13.70
2023-05-03T15:41:37.376Z,13.70
2023-05-03T15:44:07.876Z,13.70
2023-05-03T15:46:36.294Z,13.70
2023-05-03T15:49:05.222Z,13.70
2023-05-03T15:51:34.791Z,13.70
2023-05-03T15:54:02.803Z,13.60
2023-05-03T15:56:31.162Z,13.60
2023-05-03T15:58:59.626Z,13.50
2023-05-03T16:01:27.811Z,13.50
2023-05-03T16:03:56.080Z,13.50
2023-05-03T16:06:24.237Z,13.60
2023-05-03T16:08:53.984Z,13.60
2023-05-03T16:11:22.441Z,13.60
2023-05-03T16:13:51.353Z,13.60
2023-05-03T16:16:19.425Z,13.60
2023-05-03T16:18:47.561Z,13.50
2023-05-03T16:21:16.837Z,13.50
2023-05-03T16:23:46.013Z,13.40
2023-05-03T16:26:15.525Z,13.40
2023-05-03T16:28:43.897Z,13.40
2023-05-03T16:31:12.056Z,13.40
2023-05-03T16:33:40.088Z,13.30
2023-05-03T16:36:08.741Z,13.20
2023-05-03T16:38:36.936Z,13.20
2023-05-03T16:41:05.048Z,13.20
2023-05-03T16:43:34.627Z,13.20
2023-05-03T16:46:03.185Z,13.30
2023-05-03T16:48:32.506Z,13.20
2023-05-03T16:51:00.996Z,13.20
2023-05-03T16:53:29.150Z,13.20
2023-05-03T16:55:57.288Z,13.20
2023-05-03T16:58:25.362Z,13.10
2023-05-03T17:00:54.814Z,13.20
2023-05-03T17:03:23.096Z,13.10
2023-05-03T17:05:51.230Z,13.10
2023-05-03T17:08:19.289Z,13.10
2023-05-03T17:10:47.285Z,13.20
2023-05-03T17:13:16.487Z,13.10
2023-05-03T17:15:44.782Z,13.00
2023-05-03T17:18:14.211Z,13.00
2023-05-03T17:20:42.882Z,12.90
2023-05-03T17:23:10.963Z,12.80
2023-05-03T17:25:39.115Z,12.70
2023-05-03T17:28:07.214Z,12.70
2023-05-03T17:30:35.696Z,12.60
2023-05-03T17:33:03.833Z,12.70
2023-05-03T17:35:33.427Z,12.60
2023-05-03T17:38:01.562Z,12.60
2023-05-03T17:40:29.667Z,12.60
2023-05-03T17:42:57.804Z,12.70
2023-05-03T17:45:27.744Z,12.70
2023-05-03T17:47:56.360Z,12.60
2023-05-03T17:50:24.486Z,12.50
2023-05-03T17:52:55.392Z,12.50
2023-05-03T17:55:23.539Z,12.40
2023-05-03T17:57:51.680Z,12.30
2023-05-03T18:00:22.420Z,12.30
2023-05-03T18:02:50.556Z,12.20
2023-05-03T18:05:18.872Z,12.10
2023-05-03T18:07:47.029Z,12.00
2023-05-03T18:10:17.518Z,11.80
2023-05-03T18:12:45.759Z,11.80
2023-05-03T18:15:15.348Z,11.80
2023-05-03T18:17:43.873Z,11.70
2023-05-03T18:20:13.613Z,11.70
2023-05-03T18:22:42.188Z,11.60
2023-05-03T18:25:10.965Z,11.50
2023-05-03T18:27:40.470Z,11.50
2023-05-03T18:30:10.485Z,11.40
2023-05-03T18:32:38.694Z,11.40
2023-05-03T18:35:07.801Z,11.30
2023-05-03T18:37:35.904Z,11.20
2023-05-03T18:40:04.732Z,11.10
2023-05-03T18:42:33.268Z,11.00
2023-05-03T18:45:02.740Z,11.00
2023-05-03T18:47:31.005Z,10.90
2023-05-03T18:49:59.086Z,10.80
2023-05-03T18:52:27.206Z,10.70
2023-05-03T18:54:55.304Z,10.60
2023-05-03T18:57:23.383Z,10.60
2023-05-03T19:00:00.251Z,10.60
2023-05-03T19:02:31.485Z,10.60
2023-05-03T19:05:00.792Z,10.60
2023-05-03T19:07:29.278Z,10.60
2023-05-03T19:09:58.270Z,10.60
2023-05-03T19:12:26.805Z,10.70
2023-05-03T19:14:55.030Z,10.70
2023-05-03T19:17:23.471Z,10.70
2023-05-03T19:19:52.918Z,10.70
2023-05-03T19:22:21.329Z,10.70
2023-05-03T19:24:50.207Z,10.70
2023-05-03T19:27:18.507Z,10.70
2023-05-03T19:29:46.620Z,10.60
2023-05-03T19:32:14.713Z,10.50
2023-05-03T19:34:42.893Z,10.30
2023-05-03T19:37:12.483Z,10.20
2023-05-03T19:39:40.651Z,10.10
2023-05-03T19:42:08.904Z,10.00
2023-05-03T19:44:37.442Z,10.00
2023-05-03T19:47:05.740Z,9.90
2023-05-03T19:49:34.099Z,9.80
2023-05-03T19:52:04.414Z,9.80
2023-05-03T19:54:34.122Z,9.70
2023-05-03T19:57:05.963Z,9.70
2023-05-03T19:59:34.550Z,9.70
2023-05-03T20:02:03.016Z,9.70
2023-05-03T20:04:31.413Z,9.70
2023-05-03T20:06:59.614Z,9.70
2023-05-03T20:09:27.697Z,9.70
2023-05-03T20:11:59.861Z,9.70
2023-05-03T20:14:28.185Z,9.70
2023-05-03T20:16:59.211Z,9.70
2023-05-03T20:19:27.436Z,9.60
2023-05-03T20:21:55.492Z,9.60
2023-05-03T20:24:23.695Z,9.60
2023-05-03T20:26:52.687Z,9.60
2023-05-03T20:29:22.170Z,9.60
2023-05-03T20:31:53.497Z,9.60
2023-05-03T20:34:21.820Z,9.60
2023-05-03T20:36:49.956Z,9.60
2023-05-03T20:39:18.082Z,9.50
2023-05-03T20:41:46.314Z,9.50
2023-05-03T20:44:14.732Z,9.50
2023-05-03T20:46:45.374Z,9.40
2023-05-03T20:49:13.544Z,9.40
2023-05-03T20:51:41.716Z,9.30
2023-05-03T20:54:09.826Z,9.30
2023-05-03T20:56:37.981Z,9.30
2023-05-03T20:59:06.853Z,9.30
2023-05-03T21:01:35.088Z,9.30
2023-05-03T21:04:04.716Z,9.30
2023-05-03T21:06:32.831Z,9.20
2023-05-03T21:09:00.940Z,9.20
2023-05-03T21:11:29.042Z,9.20
2023-05-03T21:13:58.149Z,9.10
2023-05-03T21:16:27.838Z,9.10
2023-05-03T21:18:56.031Z,9.00
2023-05-03T21:21:25.568Z,9.00
2023-05-03T21:23:53.695Z,9.00
2023-05-03T21:26:22.074Z,9.00
2023-05-03T21:28:50.785Z,9.00
2023-05-03T21:31:18.952Z,9.00
2023-05-03T21:33:47.082Z,9.00
2023-05-03T21:36:16.375Z,9.10
2023-05-03T21:38:46.033Z,9.10
2023-05-03T21:41:14.463Z,9.10
2023-05-03T21:43:42.691Z,9.10
2023-05-03T21:46:11.080Z,9.00
2023-05-03T21:48:40.244Z,9.00
2023-05-03T21:51:08.559Z,8.90
2023-05-03T21:53:36.827Z,8.80
2023-05-03T21:56:07.035Z,8.70
2023-05-03T21:58:35.113Z,8.70
2023-05-03T22:01:03.572Z,8.70
2023-05-03T22:03:31.800Z,8.70
2023-05-03T22:06:00.127Z,8.70
2023-05-03T22:08:28.215Z,8.70
2023-05-03T22:10:56.984Z,8.70
2023-05-03T22:13:26.598Z,8.70
2023-05-03T22:15:54.724Z,8.60
2023-05-03T22:18:23.936Z,8.60
2023-05-03T22:20:52.272Z,8.50
2023-05-03T22:23:20.375Z,8.50
2023-05-03T22:25:48.665Z,8.50
2023-05-03T22:28:16.760Z,8.40
2023-05-03T22:30:46.709Z,8.40
2023-05-03T22:33:15.210Z,8.40
2023-05-03T22:35:43.386Z,8.30
2023-05-03T22:38:11.590Z,8.30
2023-05-03T22:40:39.722Z,8.30
2023-05-03T22:43:07.820Z,8.20
2023-05-03T22:45:35.972Z,8.20
2023-05-03T22:48:06.099Z,8.20
2023-05-03T22:50:34.356Z,8.10
2023-05-03T22:53:02.455Z,8.00
2023-05-03T22:55:30.552Z,8.00
2023-05-03T22:57:58.653Z,8.00
2023-05-03T23:00:27.064Z,7.90
2023-05-03T23:02:55.605Z,7.90
2023-05-03T23:05:25.726Z,7.90
2023-05-03T23:07:53.827Z,7.90
2023-05-03T23:10:22.029Z,7.90
2023-05-03T23:12:50.386Z,8.00
2023-05-03T23:15:18.700Z,7.90
2023-05-03T23:17:46.839Z,7.90
2023-05-03T23:20:15.565Z,7.90
2023-05-03T23:22:45.023Z,7.90
2023-05-03T23:25:13.146Z,7.90
2023-05-03T23:27:41.354Z,7.80
2023-05-03T23:30:11.081Z,7.80
2023-05-03T23:32:39.958Z,7.70
2023-05-03T23:35:10.303Z,7.70
2023-05-03T23:37:38.408Z,7.60
2023-05-03T23:40:09.631Z,7.60
2023-05-03T23:42:39.581Z,7.60
2023-05-03T23:45:09.806Z,7.50
2023-05-03T23:47:38.019Z,7.50
2023-05-03T23:50:07.650Z,7.40
2023-05-03T23:52:36.920Z,7.40
2023-05-03T23:55:07.361Z,7.30
2023-05-03T23:57:35.904Z,7.20
